Pagrindinis puslapis
METAR-TAF:

METAR-TAF

Oro uostai :

Dalaman, Turkija

platuma: 36-42N, ilguma: 028-47E, Aukštis: 7 m

Dabartinis oras

Ataskaita buvo paskelbta 24 minutes, ne 17:50 UTC
Vėjas 11 kt iš Šiaurės/Šiaurės Rytų
Temperatūra 28°C
Drėgmė 22%
Slėgis 1010 hPa
Matomumas 10 km arba daugiau
nėra debesų žemiau 1500 m ir nėra kamuolinių lietaus debesų

METAR: LTBS 151750Z 02011KT CAVOK 28/04 Q1010 NOSIG RMK RWY19 01011KT

Laikas: 21:14 (18:14 UTC)

Prognozė

Ataskaita buvo paskelbta 1 valandą ir 34 minutes, ne 16:40 UTC
Prognozė galioja nuo 15 metu 18 UTC su 16 metu 18 UTC
Vėjas 15 kt iš Šiaurės
Matomumas 10 km arba daugiau
nėra debesų žemiau 1500 m ir nėra kamuolinių lietaus debesų
Tapsmas
nuo 16 metu 07 UTC su 16 metu 09 UTC
Vėjas 13 kt iš Pietvakarių
Mažai debesys ne aukštis 3000 ft
Tapsmas
nuo 16 metu 16 UTC su 16 metu 18 UTC
Vėjas 2 kt nuo kintamojo kryptimis
Matomumas 10 km arba daugiau
nėra debesų žemiau 1500 m ir nėra kamuolinių lietaus debesų

TAF: LTBS 151640Z 1518/1618 01015KT CAVOK BECMG 1607/1609 23013KT FEW030 BECMG 1616/1618 VRB02KT CAVOK

Orai ataskaitas ir orų prognozės (METAR, TAF).

turimą stotys yra geltonos ir raudonos taškus žemėlapyje.

Perkelti pele per norėdami pamatyti stoties vardą.

Tada spustelėkite, norėdami matyti oro stebėjimo ir prognozės.

Norėdami pakeisti žemėlapį: spustelėkite ant žalios mygtukų su juodo kryžiaus žemyn,; žalią mygtuką su brūkšneliu, jei norite nutolinti; arba žalių rodyklių gretimoms žemėlapius.


METAR-TAF: